LiveATC.Net - Listen to live air traffic control over the Internet!


ICAO: KOGD  IATA: OGD   Airport: Ogden-Hinckley Airport
City: Ogden   State/Province: Utah
Country: United States   Continent: North America
KOGD METAR Weather: KOGD 240053Z 00000KT 10SM CLR 31/M07 A3004 RMK AO2 SLP111 T03111067
KOGD Flight Activity (FlightAware)
KOGD Airport Info   (AirNav) (iFlightPlanner)
KOGD VFR Sectional Chart   (iFlightPlanner) 
KOGD IFR Low Chart   (iFlightPlanner) 
KOGD Ogden Ground/Tower
Feed Status: UP   Listeners: 0
Listen right in your browser - requires Flash (in browser, requires Flash)
Click here to listen with your own player (launches your MP3 player)
KOGD Ogden Ground/Tower Audio Archives
FacilityFrequency
Ogden Ground121.700
Ogden Tower118.700


NOTICE

Unauthorized use prohibited. See LiveATC.net Terms of Service


Find LiveATC Audio Streams


Airport/ARTCC Code

Frequency
(e.g., 124.400, 128.75)
Site-wide search

Browse LiveATC Feeds
LiveATC Coverage Map
Top 50 LiveATC Feeds
Bad Weather Areas

LiveATC FAQ
Offer a LiveATC Feed
Contact LiveATC.net
Press Inquiries

LiveATC on iPhone
LiveATC on Android

Windows Phone
Windows 8/10

LiveATC Mobile
(Mobile browser)

ATC Audio Archives
Interesting Recordings

LiveATC Forums


Home Page
About LiveATC.net
Make a Donation
LiveATC Store

Terms of Use
Privacy Policy

Canadian Air Freqs

AIRMETs/SIGMETs

FAA Airport Status
Nat'l Airspace Status
Arrival Demand Charts


Server Software By:
Icecast.org
Liquidsoap